Time,TemperatureF,DewpointF,PressureIn,WindDirection,WindDirectionDegrees,WindSpeedMPH,WindSpeedGustMPH,Humidity,HourlyPrecipIn,Conditions,Clouds,dailyrainin,SoftwareType,DateUTC
2013-04-27 00:02:00,50.5,50.5,30.13,East,93,0.0,1.0,100,0.00,,,0.00,Wunderground v.1.15,2013-04-27 07:02:00,
2013-04-27 00:07:00,50.7,50.7,30.13,East,93,0.0,1.0,100,0.00,,,0.00,Wunderground v.1.15,2013-04-27 07:07:00,
2013-04-27 00:12:00,50.7,50.7,30.13,East,93,0.0,0.0,100,0.00,,,0.00,Wunderground v.1.15,2013-04-27 07:12:00,
2013-04-27 00:17:00,50.7,50.7,30.12,East,93,0.0,3.0,100,0.00,,,0.00,Wunderground v.1.15,2013-04-27 07:17:00,
2013-04-27 00:22:00,50.7,50.7,30.12,East,93,0.0,1.0,100,0.00,,,0.00,Wunderground v.1.15,2013-04-27 07:22:00,
2013-04-27 00:27:00,50.7,50.7,30.12,East,93,0.0,1.0,100,0.00,,,0.00,Wunderground v.1.15,2013-04-27 07:27:00,
2013-04-27 00:33:00,50.5,50.5,30.12,East,93,0.0,2.0,100,0.00,,,0.00,Wunderground v.1.15,2013-04-27 07:33:00,
2013-04-27 00:38:00,50.4,50.4,30.12,East,93,0.0,2.0,100,0.00,,,0.00,Wunderground v.1.15,2013-04-27 07:38:00,
2013-04-27 00:43:00,50.4,50.4,30.12,East,93,0.0,0.0,100,0.00,,,0.00,Wunderground v.1.15,2013-04-27 07:43:00,
2013-04-27 00:48:00,50.4,50.4,30.12,East,93,0.0,0.0,100,0.00,,,0.00,Wunderground v.1.15,2013-04-27 07:48:00,
2013-04-27 00:53:00,50.4,50.4,30.12,East,93,0.0,0.0,100,0.00,,,0.00,Wunderground v.1.15,2013-04-27 07:53:00,
2013-04-27 00:58:00,50.4,50.4,30.12,East,93,0.0,0.0,100,0.00,,,0.00,Wunderground v.1.15,2013-04-27 07:58:00,
2013-04-27 01:03:00,50.2,50.2,30.12,East,93,0.0,0.0,100,0.00,,,0.00,Wunderground v.1.15,2013-04-27 08:03:00,
2013-04-27 01:08:00,50.2,50.2,30.12,East,93,0.0,0.0,100,0.00,,,0.00,Wunderground v.1.15,2013-04-27 08:08:00,
2013-04-27 01:13:00,50.2,50.2,30.12,East,93,0.0,0.0,100,0.00,,,0.00,Wunderground v.1.15,2013-04-27 08:13:00,
2013-04-27 01:17:00,50.2,50.2,30.12,East,93,0.0,0.0,100,0.00,,,0.00,Wunderground v.1.15,2013-04-27 08:17:00,
2013-04-27 01:22:00,50.2,50.2,30.12,East,93,0.0,0.0,100,0.00,,,0.00,Wunderground v.1.15,2013-04-27 08:22:00,
2013-04-27 01:27:00,50.2,50.2,30.12,East,93,0.0,1.0,100,0.00,,,0.00,Wunderground v.1.15,2013-04-27 08:27:00,
2013-04-27 01:32:00,50.2,50.2,30.11,East,93,0.0,0.0,100,0.00,,,0.00,Wunderground v.1.15,2013-04-27 08:32:00,
2013-04-27 01:37:00,50.1,50.1,30.11,East,93,0.0,1.0,100,0.00,,,0.00,Wunderground v.1.15,2013-04-27 08:37:00,
2013-04-27 01:43:00,50.1,50.1,30.11,East,93,0.0,0.0,100,0.00,,,0.00,Wunderground v.1.15,2013-04-27 08:43:00,
2013-04-27 01:47:00,50.1,50.1,30.11,East,93,0.0,0.0,100,0.00,,,0.00,Wunderground v.1.15,2013-04-27 08:47:00,
2013-04-27 01:52:00,50.2,50.2,30.11,East,93,0.0,1.0,100,0.00,,,0.00,Wunderground v.1.15,2013-04-27 08:52:00,
2013-04-27 01:57:00,50.2,50.2,30.11,NW,315,0.0,1.0,100,0.00,,,0.00,Wunderground v.1.15,2013-04-27 08:57:00,
2013-04-27 02:02:00,50.2,50.2,30.11,NW,315,0.0,0.0,100,0.00,,,0.00,Wunderground v.1.15,2013-04-27 09:02:00,
2013-04-27 02:07:00,50.2,50.2,30.11,NW,315,0.0,1.0,100,0.00,,,0.00,Wunderground v.1.15,2013-04-27 09:07:00,
2013-04-27 02:12:00,50.2,50.2,30.11,NW,315,0.0,0.0,100,0.00,,,0.00,Wunderground v.1.15,2013-04-27 09:12:00,
2013-04-27 02:17:00,50.2,50.2,30.11,NW,315,0.0,0.0,100,0.00,,,0.00,Wunderground v.1.15,2013-04-27 09:17:00,
2013-04-27 02:22:00,50.2,50.2,30.11,NW,315,0.0,0.0,100,0.00,,,0.00,Wunderground v.1.15,2013-04-27 09:22:00,
2013-04-27 02:27:00,50.2,50.2,30.11,NW,315,0.0,3.0,100,0.00,,,0.00,Wunderground v.1.15,2013-04-27 09:27:00,
2013-04-27 02:32:00,50.2,50.2,30.11,NW,315,0.0,0.0,100,0.00,,,0.00,Wunderground v.1.15,2013-04-27 09:32:00,
2013-04-27 02:37:00,50.2,50.2,30.11,NW,315,0.0,0.0,100,0.00,,,0.00,Wunderground v.1.15,2013-04-27 09:37:00,
2013-04-27 02:42:00,50.2,50.2,30.11,NW,310,0.0,2.0,100,0.00,,,0.00,Wunderground v.1.15,2013-04-27 09:42:00,
2013-04-27 02:47:00,50.2,50.2,30.10,NW,310,0.0,2.0,100,0.00,,,0.00,Wunderground v.1.15,2013-04-27 09:47:00,
2013-04-27 02:52:00,50.2,50.2,30.10,NW,310,0.0,0.0,100,0.00,,,0.00,Wunderground v.1.15,2013-04-27 09:52:00,
2013-04-27 02:57:00,50.1,50.1,30.10,North,352,0.0,3.0,100,0.00,,,0.00,Wunderground v.1.15,2013-04-27 09:57:00,
2013-04-27 03:02:00,50.1,50.1,30.10,North,352,0.0,2.0,100,0.00,,,0.00,Wunderground v.1.15,2013-04-27 10:02:00,
2013-04-27 03:07:00,50.1,50.1,30.10,North,352,0.0,2.0,100,0.00,,,0.00,Wunderground v.1.15,2013-04-27 10:07:00,
2013-04-27 03:13:00,50.1,50.1,30.10,North,352,0.0,0.0,100,0.00,,,0.00,Wunderground v.1.15,2013-04-27 10:13:00,
2013-04-27 03:18:00,50.1,50.1,30.10,North,352,0.0,0.0,100,0.00,,,0.00,Wunderground v.1.15,2013-04-27 10:18:00,
2013-04-27 03:23:00,50.1,50.1,30.10,North,352,0.0,0.0,100,0.00,,,0.00,Wunderground v.1.15,2013-04-27 10:23:00,
2013-04-27 03:28:00,49.9,49.9,30.10,North,356,0.0,0.0,100,0.00,,,0.00,Wunderground v.1.15,2013-04-27 10:28:00,
2013-04-27 03:33:00,49.9,49.9,30.10,North,356,0.0,1.0,100,0.00,,,0.00,Wunderground v.1.15,2013-04-27 10:33:00,
2013-04-27 03:38:00,49.9,49.9,30.10,North,356,0.0,1.0,100,0.00,,,0.00,Wunderground v.1.15,2013-04-27 10:38:00,
2013-04-27 03:43:00,49.9,49.9,30.10,North,356,0.0,1.0,100,0.00,,,0.00,Wunderground v.1.15,2013-04-27 10:43:00,
2013-04-27 03:48:00,49.8,49.8,30.10,North,356,0.0,1.0,100,0.00,,,0.00,Wunderground v.1.15,2013-04-27 10:48:00,
2013-04-27 03:53:00,49.8,49.8,30.10,North,356,0.0,0.0,100,0.00,,,0.00,Wunderground v.1.15,2013-04-27 10:53:00,
2013-04-27 03:58:00,49.6,49.6,30.10,North,356,0.0,0.0,100,0.00,,,0.00,Wunderground v.1.15,2013-04-27 10:58:00,
2013-04-27 04:03:00,49.6,49.6,30.10,NNW,340,0.0,1.0,100,0.00,,,0.00,Wunderground v.1.15,2013-04-27 11:03:00,
2013-04-27 04:08:00,49.6,49.6,30.10,NNW,340,0.0,1.0,100,0.00,,,0.00,Wunderground v.1.15,2013-04-27 11:08:00,
2013-04-27 04:13:00,49.6,49.6,30.10,NNW,340,0.0,0.0,100,0.00,,,0.00,Wunderground v.1.15,2013-04-27 11:13:00,
2013-04-27 04:18:00,49.6,49.6,30.09,NNW,340,0.0,0.0,100,0.00,,,0.00,Wunderground v.1.15,2013-04-27 11:18:00,
2013-04-27 04:23:00,49.5,49.5,30.09,NNW,340,0.0,0.0,100,0.00,,,0.00,Wunderground v.1.15,2013-04-27 11:23:00,
2013-04-27 04:28:00,49.4,49.4,30.09,NNW,340,0.0,1.0,100,0.00,,,0.00,Wunderground v.1.15,2013-04-27 11:28:00,
2013-04-27 04:33:00,49.4,49.4,30.09,NNW,340,0.0,0.0,100,0.00,,,0.00,Wunderground v.1.15,2013-04-27 11:33:00,
2013-04-27 04:38:00,49.2,49.2,30.09,NNW,340,1.0,2.0,100,0.00,,,0.00,Wunderground v.1.15,2013-04-27 11:38:00,
2013-04-27 04:43:00,49.1,49.1,30.09,NNW,340,0.0,0.0,100,0.00,,,0.00,Wunderground v.1.15,2013-04-27 11:43:00,
2013-04-27 04:48:00,48.9,48.9,30.09,NNW,340,0.0,0.0,100,0.00,,,0.00,Wunderground v.1.15,2013-04-27 11:48:00,
2013-04-27 04:53:00,48.9,48.9,30.09,NNW,340,0.0,0.0,100,0.00,,,0.00,Wunderground v.1.15,2013-04-27 11:53:00,
2013-04-27 04:58:00,48.9,48.9,30.09,NNW,340,0.0,0.0,100,0.00,,,0.00,Wunderground v.1.15,2013-04-27 11:58:00,
2013-04-27 05:03:00,48.9,48.9,30.09,NNW,340,0.0,1.0,100,0.00,,,0.00,Wunderground v.1.15,2013-04-27 12:03:00,
2013-04-27 05:08:00,48.9,48.9,30.09,NNW,340,0.0,1.0,100,0.00,,,0.00,Wunderground v.1.15,2013-04-27 12:08:00,
2013-04-27 05:13:00,49.1,49.1,30.09,NNW,340,0.0,0.0,100,0.00,,,0.00,Wunderground v.1.15,2013-04-27 12:13:00,
2013-04-27 05:18:00,49.1,49.1,30.09,NNW,340,0.0,0.0,100,0.00,,,0.00,Wunderground v.1.15,2013-04-27 12:18:00,
2013-04-27 05:23:00,48.9,48.9,30.09,NNW,340,0.0,1.0,100,0.00,,,0.00,Wunderground v.1.15,2013-04-27 12:23:00,
2013-04-27 05:28:00,48.9,48.9,30.09,NNW,342,0.0,2.0,100,0.00,,,0.00,Wunderground v.1.15,2013-04-27 12:28:00,
2013-04-27 05:33:00,48.8,48.8,30.09,ENE,62,1.0,2.0,100,0.00,,,0.00,Wunderground v.1.15,2013-04-27 12:33:00,
2013-04-27 05:38:00,48.8,48.8,30.09,ENE,62,0.0,2.0,100,0.00,,,0.00,Wunderground v.1.15,2013-04-27 12:38:00,
2013-04-27 05:43:00,48.8,48.8,30.09,ENE,62,0.0,1.0,100,0.00,,,0.00,Wunderground v.1.15,2013-04-27 12:43:00,
2013-04-27 05:48:00,48.6,48.6,30.08,ENE,62,0.0,1.0,100,0.00,,,0.00,Wunderground v.1.15,2013-04-27 12:48:00,
2013-04-27 05:53:00,48.6,48.6,30.08,ENE,62,0.0,0.0,100,0.00,,,0.00,Wunderground v.1.15,2013-04-27 12:53:00,
2013-04-27 05:58:00,48.5,48.5,30.08,ENE,63,0.0,2.0,100,0.00,,,0.00,Wunderground v.1.15,2013-04-27 12:58:00,
2013-04-27 06:03:00,48.5,48.5,30.08,ENE,62,0.0,0.0,100,0.00,,,0.00,Wunderground v.1.15,2013-04-27 13:03:00,
2013-04-27 06:08:00,48.3,48.3,30.08,ENE,62,0.0,0.0,100,0.00,,,0.00,Wunderground v.1.15,2013-04-27 13:08:00,
2013-04-27 06:13:00,48.2,48.2,30.08,ENE,62,0.0,0.0,100,0.00,,,0.00,Wunderground v.1.15,2013-04-27 13:13:00,
2013-04-27 06:18:00,48.2,48.2,30.09,ENE,62,0.0,0.0,100,0.00,,,0.00,Wunderground v.1.15,2013-04-27 13:18:00,
2013-04-27 06:23:00,48.2,48.2,30.09,ENE,62,0.0,0.0,100,0.00,,,0.00,Wunderground v.1.15,2013-04-27 13:23:00,
2013-04-27 06:28:00,48.2,48.2,30.09,ENE,62,0.0,0.0,100,0.00,,,0.00,Wunderground v.1.15,2013-04-27 13:28:00,
2013-04-27 06:33:00,48.0,48.0,30.09,ENE,62,0.0,0.0,100,0.00,,,0.00,Wunderground v.1.15,2013-04-27 13:33:00,
2013-04-27 06:38:00,48.0,48.0,30.09,ENE,62,0.0,0.0,100,0.00,,,0.00,Wunderground v.1.15,2013-04-27 13:38:00,
2013-04-27 06:43:00,48.0,48.0,30.09,ENE,62,0.0,0.0,100,0.00,,,0.00,Wunderground v.1.15,2013-04-27 13:43:00,
2013-04-27 06:48:00,48.2,48.2,30.09,ENE,62,0.0,0.0,100,0.00,,,0.00,Wunderground v.1.15,2013-04-27 13:48:00,
2013-04-27 06:53:00,48.3,48.3,30.09,ENE,62,0.0,0.0,100,0.00,,,0.00,Wunderground v.1.15,2013-04-27 13:53:00,
2013-04-27 06:58:00,48.5,48.5,30.09,ENE,62,0.0,0.0,100,0.00,,,0.00,Wunderground v.1.15,2013-04-27 13:58:00,
2013-04-27 07:03:00,48.6,48.6,30.10,ENE,62,0.0,0.0,100,0.00,,,0.00,Wunderground v.1.15,2013-04-27 14:03:00,
2013-04-27 07:08:00,48.5,48.5,30.10,ENE,62,0.0,1.0,100,0.00,,,0.00,Wunderground v.1.15,2013-04-27 14:08:00,
2013-04-27 07:13:00,48.6,48.6,30.10,ENE,62,0.0,0.0,100,0.00,,,0.00,Wunderground v.1.15,2013-04-27 14:13:00,
2013-04-27 07:18:00,48.6,48.6,30.10,ENE,62,0.0,0.0,100,0.00,,,0.00,Wunderground v.1.15,2013-04-27 14:18:00,
2013-04-27 07:23:00,48.8,48.8,30.10,ENE,62,0.0,0.0,100,0.00,,,0.00,Wunderground v.1.15,2013-04-27 14:23:00,
2013-04-27 07:28:00,48.8,48.8,30.10,ENE,63,0.0,1.0,100,0.00,,,0.00,Wunderground v.1.15,2013-04-27 14:28:00,
2013-04-27 07:33:00,48.8,48.8,30.11,ENE,63,0.0,0.0,100,0.00,,,0.00,Wunderground v.1.15,2013-04-27 14:33:00,
2013-04-27 07:38:00,48.8,48.8,30.11,ENE,62,0.0,0.0,100,0.00,,,0.00,Wunderground v.1.15,2013-04-27 14:38:00,
2013-04-27 07:43:00,48.8,48.8,30.11,ENE,62,0.0,1.0,100,0.00,,,0.00,Wunderground v.1.15,2013-04-27 14:43:00,
2013-04-27 07:48:00,48.9,48.9,30.11,ENE,60,1.0,2.0,100,0.00,,,0.00,Wunderground v.1.15,2013-04-27 14:48:00,
2013-04-27 07:53:00,48.8,48.8,30.11,ENE,60,0.0,1.0,100,0.00,,,0.00,Wunderground v.1.15,2013-04-27 14:53:00,
2013-04-27 07:58:00,48.9,48.9,30.11,ENE,60,0.0,1.0,100,0.00,,,0.00,Wunderground v.1.15,2013-04-27 14:58:00,
2013-04-27 08:03:00,49.1,49.1,30.11,NE,54,0.0,2.0,100,0.00,,,0.00,Wunderground v.1.15,2013-04-27 15:03:00,
2013-04-27 08:08:00,49.2,49.2,30.11,NE,54,0.0,2.0,100,0.00,,,0.00,Wunderground v.1.15,2013-04-27 15:08:00,
2013-04-27 08:13:00,49.2,49.2,30.11,NE,54,0.0,1.0,100,0.00,,,0.00,Wunderground v.1.15,2013-04-27 15:13:00,
2013-04-27 08:18:00,49.2,49.2,30.11,ENE,64,0.0,1.0,100,0.00,,,0.00,Wunderground v.1.15,2013-04-27 15:18:00,
2013-04-27 08:23:00,49.5,49.5,30.11,ENE,67,0.0,1.0,100,0.00,,,0.00,Wunderground v.1.15,2013-04-27 15:23:00,
2013-04-27 08:28:00,49.8,49.8,30.11,WNW,294,0.0,4.0,100,0.00,,,0.00,Wunderground v.1.15,2013-04-27 15:28:00,
2013-04-27 08:33:00,49.9,49.9,30.11,North,1,0.0,1.0,100,0.00,,,0.00,Wunderground v.1.15,2013-04-27 15:33:00,
2013-04-27 08:38:00,50.2,50.2,30.11,North,1,0.0,1.0,100,0.00,,,0.00,Wunderground v.1.15,2013-04-27 15:38:00,
2013-04-27 08:43:00,50.5,50.5,30.11,North,1,0.0,0.0,100,0.00,,,0.00,Wunderground v.1.15,2013-04-27 15:43:00,
2013-04-27 08:48:00,50.8,50.8,30.11,North,1,0.0,1.0,100,0.00,,,0.00,Wunderground v.1.15,2013-04-27 15:48:00,
2013-04-27 08:53:00,51.1,51.1,30.11,West,268,0.0,3.0,100,0.00,,,0.00,Wunderground v.1.15,2013-04-27 15:53:00,
2013-04-27 08:58:00,51.1,51.1,30.11,NNW,339,1.0,3.0,100,0.00,,,0.00,Wunderground v.1.15,2013-04-27 15:58:00,
2013-04-27 09:03:00,51.9,51.9,30.12,ENE,72,0.0,1.0,100,0.00,,,0.00,Wunderground v.1.15,2013-04-27 16:03:00,
2013-04-27 09:08:00,52.5,52.5,30.12,NNE,16,0.0,4.0,100,0.00,,,0.00,Wunderground v.1.15,2013-04-27 16:08:00,
2013-04-27 09:13:00,53.1,53.1,30.12,NNW,342,0.0,4.0,100,0.00,,,0.00,Wunderground v.1.15,2013-04-27 16:13:00,
2013-04-27 09:18:00,53.8,53.8,30.12,NW,308,1.0,4.0,100,0.00,,,0.00,Wunderground v.1.15,2013-04-27 16:18:00,
2013-04-27 09:23:00,54.2,54.2,30.12,North,359,0.0,5.0,100,0.00,,,0.00,Wunderground v.1.15,2013-04-27 16:23:00,
2013-04-27 09:28:00,55.0,54.7,30.12,North,359,0.0,5.0,99,0.00,,,0.00,Wunderground v.1.15,2013-04-27 16:28:00,
2013-04-27 09:33:00,55.6,54.8,30.11,North,359,3.0,3.0,97,0.00,,,0.00,Wunderground v.1.15,2013-04-27 16:33:00,
2013-04-27 09:38:00,56.7,55.0,30.11,East,88,1.0,4.0,94,0.00,,,0.00,Wunderground v.1.15,2013-04-27 16:38:00,
2013-04-27 09:43:00,57.5,54.3,30.11,SE,131,0.0,2.0,89,0.00,,,0.00,Wunderground v.1.15,2013-04-27 16:43:00,
2013-04-27 09:48:00,58.0,54.2,30.11,South,191,0.0,6.0,87,0.00,,,0.00,Wunderground v.1.15,2013-04-27 16:48:00,
2013-04-27 09:53:00,58.0,53.5,30.11,SSE,148,0.0,5.0,85,0.00,,,0.00,Wunderground v.1.15,2013-04-27 16:53:00,
2013-04-27 09:58:00,58.4,53.6,30.11,ESE,120,1.0,5.0,84,0.00,,,0.00,Wunderground v.1.15,2013-04-27 16:58:00,
2013-04-27 10:03:00,58.3,52.8,30.11,West,271,1.0,7.0,82,0.00,,,0.00,Wunderground v.1.15,2013-04-27 17:03:00,
2013-04-27 10:08:00,58.1,52.6,30.11,North,349,5.0,7.0,82,0.00,,,0.00,Wunderground v.1.15,2013-04-27 17:08:00,
2013-04-27 10:13:00,57.3,52.2,30.11,West,271,0.0,5.0,83,0.00,,,0.00,Wunderground v.1.15,2013-04-27 17:13:00,
2013-04-27 10:18:00,58.0,52.9,30.11,SW,219,0.0,5.0,83,0.00,,,0.00,Wunderground v.1.15,2013-04-27 17:18:00,
2013-04-27 10:23:00,58.1,52.6,30.11,SSW,199,2.0,7.0,82,0.00,,,0.00,Wunderground v.1.15,2013-04-27 17:23:00,
2013-04-27 10:28:00,57.3,51.5,30.11,NNW,335,4.0,7.0,81,0.00,,,0.00,Wunderground v.1.15,2013-04-27 17:28:00,
2013-04-27 10:33:00,57.0,52.5,30.11,North,357,5.0,6.0,85,0.00,,,0.00,Wunderground v.1.15,2013-04-27 17:33:00,
2013-04-27 10:38:00,57.3,52.2,30.11,North,0,4.0,6.0,83,0.00,,,0.00,Wunderground v.1.15,2013-04-27 17:38:00,
2013-04-27 10:43:00,56.5,51.4,30.11,North,349,2.0,7.0,83,0.00,,,0.00,Wunderground v.1.15,2013-04-27 17:43:00,
2013-04-27 10:48:00,55.9,51.5,30.12,NW,310,6.0,9.0,85,0.00,,,0.00,Wunderground v.1.15,2013-04-27 17:48:00,
2013-04-27 10:53:00,56.0,51.9,30.12,NNE,28,3.0,9.0,86,0.00,,,0.00,Wunderground v.1.15,2013-04-27 17:53:00,
2013-04-27 10:58:00,56.3,52.2,30.12,ESE,109,0.0,9.0,86,0.00,,,0.00,Wunderground v.1.15,2013-04-27 17:58:00,
2013-04-27 11:03:00,56.7,52.2,30.12,WSW,255,0.0,7.0,85,0.00,,,0.00,Wunderground v.1.15,2013-04-27 18:03:00,
2013-04-27 11:08:00,58.0,52.5,30.12,ENE,72,1.0,7.0,82,0.00,,,0.00,Wunderground v.1.15,2013-04-27 18:08:00,
2013-04-27 11:13:00,58.1,52.3,30.12,North,3,1.0,5.0,81,0.00,,,0.00,Wunderground v.1.15,2013-04-27 18:13:00,
2013-04-27 11:18:00,58.3,52.2,30.12,NE,46,0.0,6.0,80,0.00,,,0.00,Wunderground v.1.15,2013-04-27 18:18:00,
2013-04-27 11:23:00,58.3,52.8,30.12,East,94,0.0,6.0,82,0.00,,,0.00,Wunderground v.1.15,2013-04-27 18:23:00,
2013-04-27 11:28:00,58.6,52.8,30.12,South,176,2.0,8.0,81,0.00,,,0.00,Wunderground v.1.15,2013-04-27 18:28:00,
2013-04-27 11:33:00,58.7,52.9,30.11,East,80,0.0,4.0,81,0.00,,,0.00,Wunderground v.1.15,2013-04-27 18:33:00,
2013-04-27 11:38:00,58.6,52.1,30.11,North,0,3.0,9.0,79,0.00,,,0.00,Wunderground v.1.15,2013-04-27 18:38:00,
2013-04-27 11:43:00,57.8,52.0,30.11,NNE,24,1.0,10.0,81,0.00,,,0.00,Wunderground v.1.15,2013-04-27 18:43:00,
2013-04-27 11:48:00,58.4,52.6,30.11,SSE,152,3.0,10.0,81,0.00,,,0.00,Wunderground v.1.15,2013-04-27 18:48:00,
2013-04-27 11:53:00,59.2,52.7,30.11,SE,138,1.0,5.0,79,0.00,,,0.00,Wunderground v.1.15,2013-04-27 18:53:00,
2013-04-27 11:58:00,59.0,52.5,30.11,SSE,148,3.0,6.0,79,0.00,,,0.00,Wunderground v.1.15,2013-04-27 18:58:00,
2013-04-27 12:03:00,59.0,52.8,30.11,SSE,152,1.0,4.0,80,0.00,,,0.00,Wunderground v.1.15,2013-04-27 19:03:00,
2013-04-27 12:08:00,59.5,53.0,30.11,SSE,154,2.0,4.0,79,0.00,,,0.00,Wunderground v.1.15,2013-04-27 19:08:00,
2013-04-27 12:13:00,60.5,53.3,30.11,SSE,149,2.0,5.0,77,0.00,,,0.00,Wunderground v.1.15,2013-04-27 19:13:00,
2013-04-27 12:18:00,60.4,53.2,30.10,ESE,115,2.0,6.0,77,0.00,,,0.00,Wunderground v.1.15,2013-04-27 19:18:00,
2013-04-27 12:23:00,60.9,53.3,30.10,ESE,107,0.0,6.0,76,0.00,,,0.00,Wunderground v.1.15,2013-04-27 19:23:00,
2013-04-27 12:28:00,60.4,53.2,30.10,SE,124,2.0,10.0,77,0.00,,,0.00,Wunderground v.1.15,2013-04-27 19:28:00,
2013-04-27 12:33:00,59.9,53.0,30.10,East,90,3.0,8.0,78,0.00,,,0.00,Wunderground v.1.15,2013-04-27 19:33:00,
2013-04-27 12:38:00,58.7,52.2,30.10,North,2,4.0,17.0,79,0.00,,,0.00,Wunderground v.1.15,2013-04-27 19:38:00,
2013-04-27 12:43:00,59.0,52.5,30.10,SSE,162,1.0,4.0,79,0.00,,,0.00,Wunderground v.1.15,2013-04-27 19:43:00,
2013-04-27 12:48:00,59.3,53.1,30.10,ESE,105,2.0,7.0,80,0.00,,,0.00,Wunderground v.1.15,2013-04-27 19:48:00,
2013-04-27 12:53:00,59.5,53.0,30.10,NNW,334,4.0,4.0,79,0.00,,,0.00,Wunderground v.1.15,2013-04-27 19:53:00,
2013-04-27 12:58:00,59.9,53.4,30.10,SE,127,4.0,10.0,79,0.00,,,0.00,Wunderground v.1.15,2013-04-27 19:58:00,
2013-04-27 13:03:00,60.1,53.6,30.09,NNE,18,1.0,5.0,79,0.00,,,0.00,Wunderground v.1.15,2013-04-27 20:03:00,
2013-04-27 13:08:00,60.4,53.9,30.09,North,11,3.0,5.0,79,0.00,,,0.00,Wunderground v.1.15,2013-04-27 20:08:00,
2013-04-27 13:13:00,60.4,53.5,30.09,North,359,1.0,7.0,78,0.00,,,0.00,Wunderground v.1.15,2013-04-27 20:13:00,
2013-04-27 13:18:00,60.1,53.2,30.08,NE,51,2.0,7.0,78,0.00,,,0.00,Wunderground v.1.15,2013-04-27 20:18:00,
2013-04-27 13:23:00,60.4,53.5,30.08,NNW,332,5.0,6.0,78,0.00,,,0.00,Wunderground v.1.15,2013-04-27 20:23:00,
2013-04-27 13:28:00,60.1,53.2,30.08,SSE,153,3.0,6.0,78,0.00,,,0.00,Wunderground v.1.15,2013-04-27 20:28:00,
2013-04-27 13:33:00,59.8,53.3,30.08,North,2,0.0,4.0,79,0.00,,,0.00,Wunderground v.1.15,2013-04-27 20:33:00,
2013-04-27 13:38:00,59.8,53.3,30.08,NNW,344,2.0,7.0,79,0.00,,,0.00,Wunderground v.1.15,2013-04-27 20:38:00,
2013-04-27 13:43:00,59.3,52.8,30.08,NNW,336,6.0,9.0,79,0.00,,,0.00,Wunderground v.1.15,2013-04-27 20:43:00,
2013-04-27 13:48:00,58.7,52.2,30.08,NW,316,1.0,9.0,79,0.00,,,0.00,Wunderground v.1.15,2013-04-27 20:48:00,
2013-04-27 13:53:00,58.0,51.9,30.08,NW,316,0.0,7.0,80,0.00,,,0.00,Wunderground v.1.15,2013-04-27 20:53:00,
2013-04-27 13:58:00,58.3,52.8,30.08,North,8,4.0,7.0,82,0.00,,,0.00,Wunderground v.1.15,2013-04-27 20:58:00,
2013-04-27 14:03:00,58.4,52.6,30.08,North,0,2.0,7.0,81,0.00,,,0.00,Wunderground v.1.15,2013-04-27 21:03:00,
2013-04-27 14:08:00,59.0,53.2,30.08,SE,135,3.0,7.0,81,0.00,,,0.00,Wunderground v.1.15,2013-04-27 21:08:00,
2013-04-27 14:13:00,59.2,53.0,30.08,SW,236,0.0,5.0,80,0.00,,,0.00,Wunderground v.1.15,2013-04-27 21:13:00,
2013-04-27 14:18:00,59.3,53.1,30.07,SW,233,4.0,5.0,80,0.00,,,0.00,Wunderground v.1.15,2013-04-27 21:18:00,
2013-04-27 14:23:00,59.3,53.1,30.07,SSE,166,0.0,7.0,80,0.00,,,0.00,Wunderground v.1.15,2013-04-27 21:23:00,
2013-04-27 14:28:00,59.8,53.3,30.07,NNE,24,1.0,7.0,79,0.00,,,0.00,Wunderground v.1.15,2013-04-27 21:28:00,
2013-04-27 14:33:00,59.6,53.1,30.06,SSW,196,2.0,7.0,79,0.00,,,0.00,Wunderground v.1.15,2013-04-27 21:33:00,
2013-04-27 14:38:00,59.2,53.0,30.06,ENE,68,0.0,7.0,80,0.00,,,0.00,Wunderground v.1.15,2013-04-27 21:38:00,
2013-04-27 14:43:00,59.5,53.3,30.06,SSE,152,2.0,6.0,80,0.00,,,0.00,Wunderground v.1.15,2013-04-27 21:43:00,
2013-04-27 14:48:00,60.1,53.6,30.06,SE,139,1.0,8.0,79,0.00,,,0.00,Wunderground v.1.15,2013-04-27 21:48:00,
2013-04-27 14:53:00,60.1,53.2,30.06,North,0,2.0,4.0,78,0.00,,,0.00,Wunderground v.1.15,2013-04-27 21:53:00,
2013-04-27 14:58:00,59.9,53.4,30.06,SSE,165,1.0,6.0,79,0.00,,,0.00,Wunderground v.1.15,2013-04-27 21:58:00,
2013-04-27 15:03:00,59.8,53.3,30.05,ENE,77,3.0,4.0,79,0.00,,,0.00,Wunderground v.1.15,2013-04-27 22:03:00,
2013-04-27 15:08:00,60.1,53.6,30.05,West,281,2.0,5.0,79,0.00,,,0.00,Wunderground v.1.15,2013-04-27 22:08:00,
2013-04-27 15:13:00,60.1,53.6,30.05,West,262,3.0,9.0,79,0.00,,,0.00,Wunderground v.1.15,2013-04-27 22:13:00,
2013-04-27 15:18:00,59.6,53.1,30.05,North,5,1.0,9.0,79,0.00,,,0.00,Wunderground v.1.15,2013-04-27 22:18:00,
2013-04-27 15:23:00,59.0,52.5,30.05,WSW,245,3.0,8.0,79,0.00,,,0.00,Wunderground v.1.15,2013-04-27 22:23:00,
2013-04-27 15:28:00,58.9,53.1,30.05,SE,131,1.0,8.0,81,0.00,,,0.00,Wunderground v.1.15,2013-04-27 22:28:00,
2013-04-27 15:33:00,58.9,53.1,30.04,WSW,240,0.0,6.0,81,0.00,,,0.00,Wunderground v.1.15,2013-04-27 22:33:00,
2013-04-27 15:38:00,59.0,52.8,30.04,SSW,213,2.0,6.0,80,0.00,,,0.00,Wunderground v.1.15,2013-04-27 22:38:00,
2013-04-27 15:43:00,59.0,52.8,30.04,NW,321,1.0,5.0,80,0.00,,,0.00,Wunderground v.1.15,2013-04-27 22:43:00,
2013-04-27 15:48:00,59.3,53.1,30.03,SSE,168,1.0,5.0,80,0.00,,,0.00,Wunderground v.1.15,2013-04-27 22:48:00,
2013-04-27 15:53:00,59.5,53.0,30.03,NNW,328,2.0,3.0,79,0.00,,,0.00,Wunderground v.1.15,2013-04-27 22:53:00,
2013-04-27 15:58:00,59.3,53.5,30.03,WNW,286,0.0,3.0,81,0.00,,,0.00,Wunderground v.1.15,2013-04-27 22:58:00,
2013-04-27 16:03:00,59.3,52.8,30.03,SSE,149,2.0,3.0,79,0.00,,,0.00,Wunderground v.1.15,2013-04-27 23:03:00,
2013-04-27 16:08:00,58.9,53.1,30.03,North,1,2.0,3.0,81,0.00,,,0.00,Wunderground v.1.15,2013-04-27 23:08:00,
2013-04-27 16:13:00,58.9,52.7,30.03,ENE,60,0.0,6.0,80,0.00,,,0.00,Wunderground v.1.15,2013-04-27 23:13:00,
2013-04-27 16:18:00,59.0,52.8,30.03,NNW,330,1.0,7.0,80,0.00,,,0.00,Wunderground v.1.15,2013-04-27 23:18:00,
2013-04-27 16:23:00,58.6,52.4,30.03,NNW,334,0.0,10.0,80,0.00,,,0.00,Wunderground v.1.15,2013-04-27 23:23:00,
2013-04-27 16:28:00,58.4,52.6,30.03,North,356,3.0,10.0,81,0.00,,,0.00,Wunderground v.1.15,2013-04-27 23:28:00,
2013-04-27 16:33:00,57.8,52.3,30.02,ESE,113,0.0,6.0,82,0.00,,,0.00,Wunderground v.1.15,2013-04-27 23:33:00,
2013-04-27 16:38:00,58.3,52.8,30.02,North,351,1.0,6.0,82,0.00,,,0.00,Wunderground v.1.15,2013-04-27 23:38:00,
2013-04-27 16:43:00,58.7,52.5,30.02,SSE,158,1.0,4.0,80,0.00,,,0.00,Wunderground v.1.15,2013-04-27 23:43:00,
2013-04-27 16:48:00,58.3,52.5,30.01,NNW,334,2.0,5.0,81,0.00,,,0.00,Wunderground v.1.15,2013-04-27 23:48:00,
2013-04-27 16:53:00,57.6,51.8,30.01,North,1,2.0,6.0,81,0.00,,,0.00,Wunderground v.1.15,2013-04-27 23:53:00,
2013-04-27 16:58:00,57.0,51.6,30.01,WNW,290,5.0,7.0,82,0.00,,,0.00,Wunderground v.1.15,2013-04-27 23:58:00,
2013-04-27 17:03:00,56.9,52.1,30.01,NW,309,1.0,4.0,84,0.00,,,0.00,Wunderground v.1.15,2013-04-28 00:03:00,
2013-04-27 17:08:00,57.0,51.9,30.01,North,359,0.0,6.0,83,0.00,,,0.00,Wunderground v.1.15,2013-04-28 00:08:00,
2013-04-27 17:13:00,56.7,51.6,30.01,WNW,288,1.0,6.0,83,0.00,,,0.00,Wunderground v.1.15,2013-04-28 00:13:00,
2013-04-27 17:18:00,56.3,51.8,30.01,ESE,106,1.0,6.0,85,0.00,,,0.00,Wunderground v.1.15,2013-04-28 00:18:00,
2013-04-27 17:23:00,55.9,51.5,30.01,West,274,1.0,6.0,85,0.00,,,0.00,Wunderground v.1.15,2013-04-28 00:23:00,
2013-04-27 17:28:00,55.1,51.0,30.01,North,352,0.0,7.0,86,0.00,,,0.00,Wunderground v.1.15,2013-04-28 00:28:00,
2013-04-27 17:33:00,55.0,51.2,30.01,ESE,114,2.0,4.0,87,0.00,,,0.00,Wunderground v.1.15,2013-04-28 00:33:00,
2013-04-27 17:38:00,54.8,51.3,30.01,NNW,330,0.0,10.0,88,0.00,,,0.00,Wunderground v.1.15,2013-04-28 00:38:00,
2013-04-27 17:43:00,54.7,51.2,30.01,North,4,0.0,3.0,88,0.00,,,0.00,Wunderground v.1.15,2013-04-28 00:43:00,
2013-04-27 17:48:00,54.7,51.5,30.01,NE,56,0.0,3.0,89,0.00,,,0.00,Wunderground v.1.15,2013-04-28 00:48:00,
2013-04-27 17:53:00,54.4,51.2,30.01,North,11,0.0,4.0,89,0.00,,,0.00,Wunderground v.1.15,2013-04-28 00:53:00,
2013-04-27 17:58:00,54.2,51.0,30.01,NW,310,2.0,4.0,89,0.00,,,0.00,Wunderground v.1.15,2013-04-28 00:58:00,
2013-04-27 18:03:00,54.1,51.2,30.01,NNW,336,0.0,2.0,90,0.00,,,0.00,Wunderground v.1.15,2013-04-28 01:03:00,
2013-04-27 18:09:00,53.8,50.9,30.01,NNW,342,0.0,2.0,90,0.00,,,0.00,Wunderground v.1.15,2013-04-28 01:09:00,
2013-04-27 18:14:00,53.5,50.6,30.01,West,263,1.0,2.0,90,0.00,,,0.00,Wunderground v.1.15,2013-04-28 01:14:00,
2013-04-27 18:19:00,53.3,50.7,30.00,SW,236,0.0,2.0,91,0.00,,,0.00,Wunderground v.1.15,2013-04-28 01:19:00,
2013-04-27 18:24:00,53.3,51.0,30.00,SSE,160,0.0,3.0,92,0.00,,,0.00,Wunderground v.1.15,2013-04-28 01:24:00,
2013-04-27 18:29:00,53.1,50.8,30.00,SSW,213,1.0,3.0,92,0.00,,,0.00,Wunderground v.1.15,2013-04-28 01:29:00,
2013-04-27 18:34:00,52.9,50.6,30.00,NW,316,0.0,1.0,92,0.00,,,0.00,Wunderground v.1.15,2013-04-28 01:34:00,
2013-04-27 18:39:00,52.6,50.6,30.00,SE,125,0.0,5.0,93,0.00,,,0.00,Wunderground v.1.15,2013-04-28 01:39:00,
2013-04-27 18:44:00,52.5,50.5,30.00,WNW,300,0.0,4.0,93,0.00,,,0.00,Wunderground v.1.15,2013-04-28 01:44:00,
2013-04-27 18:49:00,52.3,50.3,30.00,WNW,293,0.0,4.0,93,0.00,,,0.00,Wunderground v.1.15,2013-04-28 01:49:00,
2013-04-27 18:54:00,52.0,50.3,30.00,NNE,15,0.0,3.0,94,0.00,,,0.00,Wunderground v.1.15,2013-04-28 01:54:00,
2013-04-27 18:59:00,52.0,50.3,30.00,West,268,0.0,4.0,94,0.00,,,0.00,Wunderground v.1.15,2013-04-28 01:59:00,
2013-04-27 19:04:00,51.9,50.2,30.00,SW,230,0.0,4.0,94,0.00,,,0.00,Wunderground v.1.15,2013-04-28 02:04:00,
2013-04-27 19:09:00,51.9,50.5,30.00,SW,230,0.0,4.0,95,0.00,,,0.00,Wunderground v.1.15,2013-04-28 02:09:00,
2013-04-27 19:14:00,51.7,50.3,30.00,West,272,0.0,3.0,95,0.00,,,0.00,Wunderground v.1.15,2013-04-28 02:14:00,
2013-04-27 19:19:00,51.6,50.2,29.99,SSE,165,0.0,3.0,95,0.00,,,0.00,Wunderground v.1.15,2013-04-28 02:19:00,
2013-04-27 19:24:00,51.4,50.3,29.99,West,268,0.0,4.0,96,0.00,,,0.00,Wunderground v.1.15,2013-04-28 02:24:00,
2013-04-27 19:29:00,51.3,50.2,29.99,West,277,0.0,4.0,96,0.00,,,0.00,Wunderground v.1.15,2013-04-28 02:29:00,
2013-04-27 19:34:00,51.3,50.2,29.99,WNW,283,0.0,2.0,96,0.00,,,0.00,Wunderground v.1.15,2013-04-28 02:34:00,
2013-04-27 19:39:00,51.3,50.2,29.99,North,359,0.0,5.0,96,0.00,,,0.00,Wunderground v.1.15,2013-04-28 02:39:00,
2013-04-27 19:44:00,51.1,50.0,29.99,SE,135,0.0,1.0,96,0.00,,,0.00,Wunderground v.1.15,2013-04-28 02:44:00,
2013-04-27 19:49:00,51.1,50.3,29.99,SE,134,0.0,1.0,97,0.00,,,0.00,Wunderground v.1.15,2013-04-28 02:49:00,
2013-04-27 19:54:00,51.0,50.2,29.99,SE,134,0.0,1.0,97,0.00,,,0.00,Wunderground v.1.15,2013-04-28 02:54:00,
2013-04-27 19:59:00,51.0,50.2,29.99,SE,134,0.0,1.0,97,0.00,,,0.00,Wunderground v.1.15,2013-04-28 02:59:00,
2013-04-27 20:04:00,51.0,50.2,29.99,SE,134,0.0,1.0,97,0.00,,,0.00,Wunderground v.1.15,2013-04-28 03:04:00,
2013-04-27 20:09:00,51.0,50.2,29.99,SE,134,0.0,1.0,97,0.00,,,0.00,Wunderground v.1.15,2013-04-28 03:09:00,
2013-04-27 20:14:00,50.8,50.0,29.99,SSE,168,0.0,2.0,97,0.00,,,0.00,Wunderground v.1.15,2013-04-28 03:14:00,
2013-04-27 20:19:00,50.8,50.3,29.99,SSE,168,0.0,2.0,98,0.00,,,0.00,Wunderground v.1.15,2013-04-28 03:19:00,
2013-04-27 20:24:00,50.7,50.2,29.99,SSE,156,0.0,1.0,98,0.00,,,0.00,Wunderground v.1.15,2013-04-28 03:24:00,
2013-04-27 20:29:00,50.7,50.2,29.99,SSE,156,0.0,1.0,98,0.00,,,0.00,Wunderground v.1.15,2013-04-28 03:29:00,
2013-04-27 20:34:00,50.7,50.2,30.00,SSE,156,0.0,0.0,98,0.00,,,0.00,Wunderground v.1.15,2013-04-28 03:34:00,
2013-04-27 20:39:00,50.5,50.0,30.00,SSE,156,0.0,1.0,98,0.00,,,0.00,Wunderground v.1.15,2013-04-28 03:39:00,
2013-04-27 20:44:00,50.5,50.0,30.00,SSE,156,0.0,0.0,98,0.00,,,0.00,Wunderground v.1.15,2013-04-28 03:44:00,
2013-04-27 20:49:00,50.5,50.0,30.00,SSE,156,0.0,0.0,98,0.00,,,0.00,Wunderground v.1.15,2013-04-28 03:49:00,
2013-04-27 20:54:00,50.5,50.0,30.00,SSE,156,0.0,0.0,98,0.00,,,0.00,Wunderground v.1.15,2013-04-28 03:54:00,
2013-04-27 20:59:00,50.5,50.0,30.00,SSE,156,0.0,0.0,98,0.00,,,0.00,Wunderground v.1.15,2013-04-28 03:59:00,
2013-04-27 21:01:00,50.5,50.2,30.00,SSE,156,0.0,0.0,99,0.00,,,0.00,Wunderground v.1.15,2013-04-28 04:01:00,
2013-04-27 21:06:00,50.7,50.4,30.00,SSE,156,0.0,0.0,99,0.00,,,0.00,Wunderground v.1.15,2013-04-28 04:06:00,
2013-04-27 21:11:00,50.7,50.4,30.00,South,186,0.0,2.0,99,0.00,,,0.00,Wunderground v.1.15,2013-04-28 04:11:00,
2013-04-27 21:16:00,50.5,50.2,30.00,South,186,0.0,2.0,99,0.00,,,0.00,Wunderground v.1.15,2013-04-28 04:16:00,
2013-04-27 21:21:00,50.5,50.5,30.00,South,186,0.0,0.0,100,0.00,,,0.00,Wunderground v.1.15,2013-04-28 04:21:00,
2013-04-27 21:26:00,50.5,50.5,30.00,South,186,0.0,0.0,100,0.00,,,0.00,Wunderground v.1.15,2013-04-28 04:26:00,
2013-04-27 21:31:00,50.5,50.5,30.01,South,186,0.0,0.0,100,0.00,,,0.00,Wunderground v.1.15,2013-04-28 04:31:00,
2013-04-27 21:36:00,50.7,50.7,30.01,South,186,0.0,0.0,100,0.00,,,0.00,Wunderground v.1.15,2013-04-28 04:36:00,
2013-04-27 21:41:00,50.5,50.5,30.01,South,186,0.0,0.0,100,0.00,,,0.00,Wunderground v.1.15,2013-04-28 04:41:00,
2013-04-27 21:46:00,50.5,50.5,30.01,South,186,0.0,0.0,100,0.00,,,0.00,Wunderground v.1.15,2013-04-28 04:46:00,
2013-04-27 21:51:00,50.5,50.5,30.01,South,186,0.0,0.0,100,0.00,,,0.00,Wunderground v.1.15,2013-04-28 04:51:00,
2013-04-27 21:56:00,50.5,50.5,30.01,South,186,0.0,1.0,100,0.00,,,0.00,Wunderground v.1.15,2013-04-28 04:56:00,
2013-04-27 22:01:00,50.5,50.5,30.01,South,186,0.0,0.0,100,0.00,,,0.00,Wunderground v.1.15,2013-04-28 05:01:00,
2013-04-27 22:06:00,50.4,50.4,30.01,SSW,198,0.0,1.0,100,0.00,,,0.00,Wunderground v.1.15,2013-04-28 05:06:00,
2013-04-27 22:11:00,50.4,50.4,30.01,SSW,198,0.0,0.0,100,0.00,,,0.00,Wunderground v.1.15,2013-04-28 05:11:00,
2013-04-27 22:16:00,50.4,50.4,30.01,SSW,198,0.0,0.0,100,0.00,,,0.00,Wunderground v.1.15,2013-04-28 05:16:00,
2013-04-27 22:21:00,50.4,50.4,30.01,SSW,198,0.0,0.0,100,0.00,,,0.00,Wunderground v.1.15,2013-04-28 05:21:00,
2013-04-27 22:26:00,50.4,50.4,30.01,ESE,108,0.0,1.0,100,0.00,,,0.00,Wunderground v.1.15,2013-04-28 05:26:00,
2013-04-27 22:31:00,50.4,50.4,30.01,ESE,108,0.0,0.0,100,0.00,,,0.00,Wunderground v.1.15,2013-04-28 05:31:00,
2013-04-27 22:36:00,50.2,50.2,30.01,ESE,115,0.0,3.0,100,0.00,,,0.00,Wunderground v.1.15,2013-04-28 05:36:00,
2013-04-27 22:41:00,50.2,50.2,30.01,ESE,115,0.0,0.0,100,0.00,,,0.00,Wunderground v.1.15,2013-04-28 05:41:00,
2013-04-27 22:46:00,50.2,50.2,30.01,ESE,115,0.0,0.0,100,0.00,,,0.00,Wunderground v.1.15,2013-04-28 05:46:00,
2013-04-27 22:51:00,50.2,50.2,30.01,ESE,115,0.0,1.0,100,0.00,,,0.00,Wunderground v.1.15,2013-04-28 05:51:00,
2013-04-27 22:56:00,50.4,50.4,30.01,ESE,115,1.0,3.0,100,0.00,,,0.00,Wunderground v.1.15,2013-04-28 05:56:00,
2013-04-27 23:01:00,50.4,50.4,30.00,ESE,113,0.0,1.0,100,0.00,,,0.00,Wunderground v.1.15,2013-04-28 06:01:00,
2013-04-27 23:06:00,50.2,50.2,30.00,ESE,113,0.0,3.0,100,0.00,,,0.00,Wunderground v.1.15,2013-04-28 06:06:00,
2013-04-27 23:11:00,50.2,50.2,30.00,ESE,110,1.0,4.0,100,0.00,,,0.00,Wunderground v.1.15,2013-04-28 06:11:00,
2013-04-27 23:16:00,50.4,50.4,30.00,ESE,110,0.0,4.0,100,0.00,,,0.00,Wunderground v.1.15,2013-04-28 06:16:00,
2013-04-27 23:21:00,50.4,50.4,30.00,ESE,110,0.0,0.0,100,0.00,,,0.00,Wunderground v.1.15,2013-04-28 06:21:00,
2013-04-27 23:26:00,50.4,50.4,30.00,ESE,110,0.0,0.0,100,0.00,,,0.00,Wunderground v.1.15,2013-04-28 06:26:00,
2013-04-27 23:31:00,50.4,50.4,30.00,ESE,110,0.0,0.0,100,0.00,,,0.00,Wunderground v.1.15,2013-04-28 06:31:00,
2013-04-27 23:36:00,50.2,50.2,30.00,ESE,110,0.0,1.0,100,0.00,,,0.00,Wunderground v.1.15,2013-04-28 06:36:00,
2013-04-27 23:41:00,50.2,50.2,30.00,WNW,289,0.0,0.0,100,0.00,,,0.00,Wunderground v.1.15,2013-04-28 06:41:00,
2013-04-27 23:46:00,50.2,50.2,30.00,WNW,289,0.0,0.0,100,0.00,,,0.00,Wunderground v.1.15,2013-04-28 06:46:00,
2013-04-27 23:51:00,50.2,50.2,30.00,WNW,289,0.0,0.0,100,0.00,,,0.00,Wunderground v.1.15,2013-04-28 06:51:00,
2013-04-27 23:56:00,50.2,50.2,30.00,WNW,289,0.0,0.0,100,0.00,,,0.00,Wunderground v.1.15,2013-04-28 06:56:00,